sensor_id;sensor_type;location;lat;lon;timestamp;P1;durP1;ratioP1;P2;durP2;ratioP2
9473;SDS011;8865;47.636;7.692;2022-11-15T00:00:28;5.30;;;4.63;;
9473;SDS011;8865;47.636;7.692;2022-11-15T00:02:55;5.40;;;4.30;;
9473;SDS011;8865;47.636;7.692;2022-11-15T00:05:21;5.83;;;4.00;;
9473;SDS011;8865;47.636;7.692;2022-11-15T00:07:47;6.00;;;4.47;;
9473;SDS011;8865;47.636;7.692;2022-11-15T00:10:13;5.53;;;4.13;;
9473;SDS011;8865;47.636;7.692;2022-11-15T00:12:39;4.33;;;3.90;;
9473;SDS011;8865;47.636;7.692;2022-11-15T00:15:06;5.83;;;3.97;;
9473;SDS011;8865;47.636;7.692;2022-11-15T00:17:32;6.00;;;4.50;;
9473;SDS011;8865;47.636;7.692;2022-11-15T00:19:58;4.93;;;4.17;;
9473;SDS011;8865;47.636;7.692;2022-11-15T00:22:24;5.90;;;4.20;;
9473;SDS011;8865;47.636;7.692;2022-11-15T00:24:50;4.77;;;4.23;;
9473;SDS011;8865;47.636;7.692;2022-11-15T00:27:16;4.17;;;3.57;;
9473;SDS011;8865;47.636;7.692;2022-11-15T00:29:42;4.97;;;4.20;;
9473;SDS011;8865;47.636;7.692;2022-11-15T00:32:09;5.47;;;4.27;;
9473;SDS011;8865;47.636;7.692;2022-11-15T00:34:35;6.07;;;4.40;;
9473;SDS011;8865;47.636;7.692;2022-11-15T00:37:01;6.83;;;4.03;;
9473;SDS011;8865;47.636;7.692;2022-11-15T00:39:27;5.57;;;4.17;;
9473;SDS011;8865;47.636;7.692;2022-11-15T00:41:53;6.03;;;4.00;;
9473;SDS011;8865;47.636;7.692;2022-11-15T00:44:19;6.17;;;3.90;;
9473;SDS011;8865;47.636;7.692;2022-11-15T00:46:45;5.03;;;4.00;;
9473;SDS011;8865;47.636;7.692;2022-11-15T00:49:11;4.07;;;3.67;;
9473;SDS011;8865;47.636;7.692;2022-11-15T00:51:37;7.63;;;3.87;;
9473;SDS011;8865;47.636;7.692;2022-11-15T00:54:03;5.00;;;3.60;;
9473;SDS011;8865;47.636;7.692;2022-11-15T00:56:29;5.43;;;3.37;;
9473;SDS011;8865;47.636;7.692;2022-11-15T00:58:55;3.90;;;3.20;;
9473;SDS011;8865;47.636;7.692;2022-11-15T01:01:21;4.50;;;3.57;;
9473;SDS011;8865;47.636;7.692;2022-11-15T01:03:47;3.90;;;3.50;;
9473;SDS011;8865;47.636;7.692;2022-11-15T01:06:13;4.60;;;3.37;;
9473;SDS011;8865;47.636;7.692;2022-11-15T01:08:39;4.57;;;3.60;;
9473;SDS011;8865;47.636;7.692;2022-11-15T01:11:07;3.73;;;3.20;;
9473;SDS011;8865;47.636;7.692;2022-11-15T01:13:35;4.23;;;3.50;;
9473;SDS011;8865;47.636;7.692;2022-11-15T01:16:06;6.90;;;5.87;;
9473;SDS011;8865;47.636;7.692;2022-11-15T01:18:33;7.63;;;6.10;;
9473;SDS011;8865;47.636;7.692;2022-11-15T01:20:59;7.20;;;5.70;;
9473;SDS011;8865;47.636;7.692;2022-11-15T01:23:25;6.07;;;5.37;;
9473;SDS011;8865;47.636;7.692;2022-11-15T01:25:51;7.67;;;6.13;;
9473;SDS011;8865;47.636;7.692;2022-11-15T01:28:17;6.37;;;5.03;;
9473;SDS011;8865;47.636;7.692;2022-11-15T01:30:42;4.10;;;3.70;;
9473;SDS011;8865;47.636;7.692;2022-11-15T01:33:08;5.03;;;3.93;;
9473;SDS011;8865;47.636;7.692;2022-11-15T01:35:37;4.77;;;4.17;;
9473;SDS011;8865;47.636;7.692;2022-11-15T01:38:04;5.03;;;4.37;;
9473;SDS011;8865;47.636;7.692;2022-11-15T01:40:30;7.03;;;4.53;;
9473;SDS011;8865;47.636;7.692;2022-11-15T01:42:56;4.63;;;3.90;;
9473;SDS011;8865;47.636;7.692;2022-11-15T01:45:22;4.30;;;3.40;;
9473;SDS011;8865;47.636;7.692;2022-11-15T01:47:49;4.83;;;4.10;;
9473;SDS011;8865;47.636;7.692;2022-11-15T01:50:19;6.20;;;3.60;;
9473;SDS011;8865;47.636;7.692;2022-11-15T01:52:53;4.03;;;3.43;;
9473;SDS011;8865;47.636;7.692;2022-11-15T01:55:23;4.23;;;3.43;;
9473;SDS011;8865;47.636;7.692;2022-11-15T01:57:53;3.70;;;3.23;;
9473;SDS011;8865;47.636;7.692;2022-11-15T02:00:22;3.20;;;2.80;;
9473;SDS011;8865;47.636;7.692;2022-11-15T02:02:48;3.83;;;3.47;;
9473;SDS011;8865;47.636;7.692;2022-11-15T02:05:14;3.30;;;3.00;;
9473;SDS011;8865;47.636;7.692;2022-11-15T02:07:40;3.53;;;2.90;;
9473;SDS011;8865;47.636;7.692;2022-11-15T02:10:08;3.97;;;3.23;;
9473;SDS011;8865;47.636;7.692;2022-11-15T02:12:40;7.53;;;3.40;;
9473;SDS011;8865;47.636;7.692;2022-11-15T02:15:07;3.53;;;3.07;;
9473;SDS011;8865;47.636;7.692;2022-11-15T02:17:44;6.03;;;2.93;;
9473;SDS011;8865;47.636;7.692;2022-11-15T02:25:37;4.03;;;3.20;;
9473;SDS011;8865;47.636;7.692;2022-11-15T02:28:10;3.43;;;3.13;;
9473;SDS011;8865;47.636;7.692;2022-11-15T02:42:15;4.63;;;3.10;;
9473;SDS011;8865;47.636;7.692;2022-11-15T02:45:07;3.87;;;2.83;;
9473;SDS011;8865;47.636;7.692;2022-11-15T02:47:41;7.20;;;3.27;;
9473;SDS011;8865;47.636;7.692;2022-11-15T02:50:12;4.23;;;3.20;;
9473;SDS011;8865;47.636;7.692;2022-11-15T02:52:46;3.83;;;3.43;;
9473;SDS011;8865;47.636;7.692;2022-11-15T02:55:30;4.47;;;3.07;;
9473;SDS011;8865;47.636;7.692;2022-11-15T03:09:54;4.60;;;3.57;;
9473;SDS011;8865;47.636;7.692;2022-11-15T03:15:01;4.47;;;3.47;;
9473;SDS011;8865;47.636;7.692;2022-11-15T03:17:49;4.73;;;3.40;;
9473;SDS011;8865;47.636;7.692;2022-11-15T03:20:23;3.93;;;3.53;;
9473;SDS011;8865;47.636;7.692;2022-11-15T03:22:52;3.60;;;3.20;;
9473;SDS011;8865;47.636;7.692;2022-11-15T03:25:22;5.10;;;3.60;;
9473;SDS011;8865;47.636;7.692;2022-11-15T03:27:51;4.13;;;3.17;;
9473;SDS011;8865;47.636;7.692;2022-11-15T03:30:20;3.13;;;2.80;;
9473;SDS011;8865;47.636;7.692;2022-11-15T03:32:47;4.27;;;3.57;;
9473;SDS011;8865;47.636;7.692;2022-11-15T03:35:21;3.83;;;3.13;;
9473;SDS011;8865;47.636;7.692;2022-11-15T03:43:24;5.13;;;3.57;;
9473;SDS011;8865;47.636;7.692;2022-11-15T03:46:13;3.60;;;3.20;;
9473;SDS011;8865;47.636;7.692;2022-11-15T03:48:47;4.07;;;3.67;;
9473;SDS011;8865;47.636;7.692;2022-11-15T03:51:17;4.27;;;3.23;;
9473;SDS011;8865;47.636;7.692;2022-11-15T03:53:44;4.93;;;3.50;;
9473;SDS011;8865;47.636;7.692;2022-11-15T03:56:11;3.97;;;3.57;;
9473;SDS011;8865;47.636;7.692;2022-11-15T03:58:37;4.90;;;4.17;;
9473;SDS011;8865;47.636;7.692;2022-11-15T04:01:03;3.63;;;3.33;;
9473;SDS011;8865;47.636;7.692;2022-11-15T04:03:29;4.40;;;4.00;;
9473;SDS011;8865;47.636;7.692;2022-11-15T04:05:55;4.60;;;4.13;;
9473;SDS011;8865;47.636;7.692;2022-11-15T04:08:21;5.67;;;4.17;;
9473;SDS011;8865;47.636;7.692;2022-11-15T04:10:48;5.50;;;4.23;;
9473;SDS011;8865;47.636;7.692;2022-11-15T04:13:14;4.70;;;4.20;;
9473;SDS011;8865;47.636;7.692;2022-11-15T04:15:40;4.70;;;4.20;;
9473;SDS011;8865;47.636;7.692;2022-11-15T04:18:06;4.63;;;4.20;;
9473;SDS011;8865;47.636;7.692;2022-11-15T04:20:32;4.73;;;3.90;;
9473;SDS011;8865;47.636;7.692;2022-11-15T04:23:18;6.90;;;3.90;;
9473;SDS011;8865;47.636;7.692;2022-11-15T04:26:13;4.30;;;3.60;;
9473;SDS011;8865;47.636;7.692;2022-11-15T04:28:41;4.10;;;3.47;;
9473;SDS011;8865;47.636;7.692;2022-11-15T04:31:26;3.47;;;3.17;;
9473;SDS011;8865;47.636;7.692;2022-11-15T04:33:52;3.33;;;3.00;;
9473;SDS011;8865;47.636;7.692;2022-11-15T04:36:19;5.83;;;3.30;;
9473;SDS011;8865;47.636;7.692;2022-11-15T04:39:04;4.33;;;3.47;;
9473;SDS011;8865;47.636;7.692;2022-11-15T04:41:30;6.00;;;3.80;;
9473;SDS011;8865;47.636;7.692;2022-11-15T04:43:56;3.80;;;3.30;;
9473;SDS011;8865;47.636;7.692;2022-11-15T04:46:22;5.40;;;3.27;;
9473;SDS011;8865;47.636;7.692;2022-11-15T04:48:49;6.70;;;3.80;;
9473;SDS011;8865;47.636;7.692;2022-11-15T04:51:16;4.40;;;3.70;;
9473;SDS011;8865;47.636;7.692;2022-11-15T04:53:42;6.07;;;4.03;;
9473;SDS011;8865;47.636;7.692;2022-11-15T04:56:08;5.60;;;3.90;;
9473;SDS011;8865;47.636;7.692;2022-11-15T04:58:34;4.20;;;3.80;;
9473;SDS011;8865;47.636;7.692;2022-11-15T05:01:13;4.50;;;4.10;;
9473;SDS011;8865;47.636;7.692;2022-11-15T05:03:43;4.23;;;3.83;;
9473;SDS011;8865;47.636;7.692;2022-11-15T05:06:29;4.17;;;3.77;;
9473;SDS011;8865;47.636;7.692;2022-11-15T05:08:55;5.13;;;4.27;;
9473;SDS011;8865;47.636;7.692;2022-11-15T05:11:21;5.30;;;4.20;;
9473;SDS011;8865;47.636;7.692;2022-11-15T05:13:47;4.57;;;4.17;;
9473;SDS011;8865;47.636;7.692;2022-11-15T05:16:14;4.97;;;4.47;;
9473;SDS011;8865;47.636;7.692;2022-11-15T05:18:40;4.87;;;4.37;;
9473;SDS011;8865;47.636;7.692;2022-11-15T05:21:07;5.23;;;4.73;;
9473;SDS011;8865;47.636;7.692;2022-11-15T05:23:35;4.90;;;4.13;;
9473;SDS011;8865;47.636;7.692;2022-11-15T05:26:02;5.53;;;4.97;;
9473;SDS011;8865;47.636;7.692;2022-11-15T05:28:29;5.27;;;4.77;;
9473;SDS011;8865;47.636;7.692;2022-11-15T05:33:27;5.83;;;4.80;;
9473;SDS011;8865;47.636;7.692;2022-11-15T05:35:59;5.50;;;5.00;;
9473;SDS011;8865;47.636;7.692;2022-11-15T05:38:29;5.00;;;4.50;;
9473;SDS011;8865;47.636;7.692;2022-11-15T05:40:55;6.63;;;4.97;;
9473;SDS011;8865;47.636;7.692;2022-11-15T05:43:21;4.97;;;4.47;;
9473;SDS011;8865;47.636;7.692;2022-11-15T05:45:48;4.73;;;4.33;;
9473;SDS011;8865;47.636;7.692;2022-11-15T05:48:14;4.70;;;4.30;;
9473;SDS011;8865;47.636;7.692;2022-11-15T05:50:42;5.10;;;4.60;;
9473;SDS011;8865;47.636;7.692;2022-11-15T05:53:12;7.27;;;5.50;;
9473;SDS011;8865;47.636;7.692;2022-11-15T05:55:40;6.03;;;5.43;;
9473;SDS011;8865;47.636;7.692;2022-11-15T05:58:06;7.33;;;5.70;;
9473;SDS011;8865;47.636;7.692;2022-11-15T06:00:33;5.93;;;5.33;;
9473;SDS011;8865;47.636;7.692;2022-11-15T06:02:59;5.37;;;4.87;;
9473;SDS011;8865;47.636;7.692;2022-11-15T06:05:25;5.70;;;4.50;;
9473;SDS011;8865;47.636;7.692;2022-11-15T06:07:51;5.37;;;4.87;;
9473;SDS011;8865;47.636;7.692;2022-11-15T06:10:17;7.00;;;4.73;;
9473;SDS011;8865;47.636;7.692;2022-11-15T06:12:43;5.67;;;5.10;;
9473;SDS011;8865;47.636;7.692;2022-11-15T06:15:09;5.60;;;4.70;;
9473;SDS011;8865;47.636;7.692;2022-11-15T06:17:35;4.77;;;4.37;;
9473;SDS011;8865;47.636;7.692;2022-11-15T06:20:01;5.20;;;4.70;;
9473;SDS011;8865;47.636;7.692;2022-11-15T06:22:27;5.40;;;4.93;;
9473;SDS011;8865;47.636;7.692;2022-11-15T06:24:53;5.00;;;4.60;;
9473;SDS011;8865;47.636;7.692;2022-11-15T06:27:19;5.13;;;4.63;;
9473;SDS011;8865;47.636;7.692;2022-11-15T06:29:45;5.70;;;5.10;;
9473;SDS011;8865;47.636;7.692;2022-11-15T06:32:11;6.53;;;5.20;;
9473;SDS011;8865;47.636;7.692;2022-11-15T06:34:37;7.03;;;5.53;;
9473;SDS011;8865;47.636;7.692;2022-11-15T06:37:03;6.47;;;5.87;;
9473;SDS011;8865;47.636;7.692;2022-11-15T06:39:29;6.13;;;5.53;;
9473;SDS011;8865;47.636;7.692;2022-11-15T06:41:55;6.27;;;5.63;;
9473;SDS011;8865;47.636;7.692;2022-11-15T06:44:21;6.07;;;5.47;;
9473;SDS011;8865;47.636;7.692;2022-11-15T06:46:47;6.20;;;5.60;;
9473;SDS011;8865;47.636;7.692;2022-11-15T06:49:13;5.90;;;5.40;;
9473;SDS011;8865;47.636;7.692;2022-11-15T06:51:39;5.73;;;5.23;;
9473;SDS011;8865;47.636;7.692;2022-11-15T06:54:05;6.33;;;5.60;;
9473;SDS011;8865;47.636;7.692;2022-11-15T06:56:31;7.60;;;6.80;;
9473;SDS011;8865;47.636;7.692;2022-11-15T06:58:57;6.40;;;5.80;;
9473;SDS011;8865;47.636;7.692;2022-11-15T07:01:23;6.27;;;5.67;;
9473;SDS011;8865;47.636;7.692;2022-11-15T07:03:48;6.90;;;5.73;;
9473;SDS011;8865;47.636;7.692;2022-11-15T07:06:14;6.73;;;5.97;;
9473;SDS011;8865;47.636;7.692;2022-11-15T07:08:40;6.27;;;5.70;;
9473;SDS011;8865;47.636;7.692;2022-11-15T07:11:07;7.37;;;6.57;;
9473;SDS011;8865;47.636;7.692;2022-11-15T07:13:34;7.37;;;6.67;;
9473;SDS011;8865;47.636;7.692;2022-11-15T07:16:02;7.63;;;6.70;;
9473;SDS011;8865;47.636;7.692;2022-11-15T07:18:33;10.70;;;8.20;;
9473;SDS011;8865;47.636;7.692;2022-11-15T07:21:04;11.50;;;9.20;;
9473;SDS011;8865;47.636;7.692;2022-11-15T07:23:31;8.60;;;7.47;;
9473;SDS011;8865;47.636;7.692;2022-11-15T07:25:58;9.97;;;8.00;;
9473;SDS011;8865;47.636;7.692;2022-11-15T07:28:24;7.30;;;6.53;;
9473;SDS011;8865;47.636;7.692;2022-11-15T07:30:54;8.07;;;7.27;;
9473;SDS011;8865;47.636;7.692;2022-11-15T07:33:20;10.83;;;9.57;;
9473;SDS011;8865;47.636;7.692;2022-11-15T07:35:46;12.23;;;10.37;;
9473;SDS011;8865;47.636;7.692;2022-11-15T07:38:16;18.50;;;14.17;;
9473;SDS011;8865;47.636;7.692;2022-11-15T07:40:45;9.07;;;7.33;;
9473;SDS011;8865;47.636;7.692;2022-11-15T07:43:11;6.70;;;5.87;;
9473;SDS011;8865;47.636;7.692;2022-11-15T07:45:42;8.70;;;6.63;;
9473;SDS011;8865;47.636;7.692;2022-11-15T07:48:09;8.33;;;6.80;;
9473;SDS011;8865;47.636;7.692;2022-11-15T07:50:35;7.33;;;6.47;;
9473;SDS011;8865;47.636;7.692;2022-11-15T07:53:00;8.17;;;6.80;;
9473;SDS011;8865;47.636;7.692;2022-11-15T07:55:27;8.10;;;7.27;;
9473;SDS011;8865;47.636;7.692;2022-11-15T07:58:05;12.13;;;8.33;;
9473;SDS011;8865;47.636;7.692;2022-11-15T08:00:32;8.97;;;8.07;;
9473;SDS011;8865;47.636;7.692;2022-11-15T08:03:05;8.27;;;7.47;;
9473;SDS011;8865;47.636;7.692;2022-11-15T08:05:33;8.77;;;6.60;;
9473;SDS011;8865;47.636;7.692;2022-11-15T08:07:59;8.40;;;7.23;;
9473;SDS011;8865;47.636;7.692;2022-11-15T08:10:26;9.93;;;8.93;;
9473;SDS011;8865;47.636;7.692;2022-11-15T08:15:25;9.43;;;8.43;;
9473;SDS011;8865;47.636;7.692;2022-11-15T08:17:56;9.20;;;7.60;;
9473;SDS011;8865;47.636;7.692;2022-11-15T08:20:23;9.50;;;8.60;;
9473;SDS011;8865;47.636;7.692;2022-11-15T08:22:50;9.00;;;8.10;;
9473;SDS011;8865;47.636;7.692;2022-11-15T08:25:17;9.70;;;8.77;;
9473;SDS011;8865;47.636;7.692;2022-11-15T08:27:43;9.33;;;8.37;;
9473;SDS011;8865;47.636;7.692;2022-11-15T08:30:09;10.70;;;8.53;;
9473;SDS011;8865;47.636;7.692;2022-11-15T08:32:36;8.23;;;7.43;;
9473;SDS011;8865;47.636;7.692;2022-11-15T08:35:02;9.73;;;7.70;;
9473;SDS011;8865;47.636;7.692;2022-11-15T08:37:28;9.53;;;7.20;;
9473;SDS011;8865;47.636;7.692;2022-11-15T08:39:54;7.80;;;7.07;;
9473;SDS011;8865;47.636;7.692;2022-11-15T08:42:21;7.90;;;7.10;;
9473;SDS011;8865;47.636;7.692;2022-11-15T08:44:47;7.50;;;6.80;;
9473;SDS011;8865;47.636;7.692;2022-11-15T08:47:13;8.20;;;7.40;;
9473;SDS011;8865;47.636;7.692;2022-11-15T08:49:39;8.60;;;7.17;;
9473;SDS011;8865;47.636;7.692;2022-11-15T08:52:05;7.87;;;6.97;;
9473;SDS011;8865;47.636;7.692;2022-11-15T08:54:31;7.77;;;7.07;;
9473;SDS011;8865;47.636;7.692;2022-11-15T08:56:57;8.40;;;7.60;;
9473;SDS011;8865;47.636;7.692;2022-11-15T08:59:23;9.07;;;8.17;;
9473;SDS011;8865;47.636;7.692;2022-11-15T09:01:49;8.43;;;7.60;;
9473;SDS011;8865;47.636;7.692;2022-11-15T09:04:15;8.33;;;7.53;;
9473;SDS011;8865;47.636;7.692;2022-11-15T09:06:41;8.13;;;7.27;;
9473;SDS011;8865;47.636;7.692;2022-11-15T09:09:07;8.73;;;7.60;;
9473;SDS011;8865;47.636;7.692;2022-11-15T09:11:33;7.73;;;7.03;;
9473;SDS011;8865;47.636;7.692;2022-11-15T09:13:59;7.63;;;6.93;;
9473;SDS011;8865;47.636;7.692;2022-11-15T09:16:25;9.07;;;6.83;;
9473;SDS011;8865;47.636;7.692;2022-11-15T09:18:52;8.43;;;6.93;;
9473;SDS011;8865;47.636;7.692;2022-11-15T09:21:19;9.10;;;7.33;;
9473;SDS011;8865;47.636;7.692;2022-11-15T09:23:45;8.63;;;7.40;;
9473;SDS011;8865;47.636;7.692;2022-11-15T09:26:11;9.77;;;8.70;;
9473;SDS011;8865;47.636;7.692;2022-11-15T09:28:37;9.43;;;8.53;;
9473;SDS011;8865;47.636;7.692;2022-11-15T09:31:04;11.03;;;9.10;;
9473;SDS011;8865;47.636;7.692;2022-11-15T09:33:31;9.83;;;7.83;;
9473;SDS011;8865;47.636;7.692;2022-11-15T09:36:05;8.63;;;7.73;;
9473;SDS011;8865;47.636;7.692;2022-11-15T09:38:32;12.10;;;9.57;;
9473;SDS011;8865;47.636;7.692;2022-11-15T09:46:15;13.23;;;9.90;;
9473;SDS011;8865;47.636;7.692;2022-11-15T09:51:29;8.13;;;7.10;;
9473;SDS011;8865;47.636;7.692;2022-11-15T09:56:35;8.20;;;7.23;;
9473;SDS011;8865;47.636;7.692;2022-11-15T10:04:57;7.43;;;6.73;;
9473;SDS011;8865;47.636;7.692;2022-11-15T10:07:27;7.60;;;6.80;;
9473;SDS011;8865;47.636;7.692;2022-11-15T10:12:29;8.67;;;7.80;;
9473;SDS011;8865;47.636;7.692;2022-11-15T10:15:06;7.23;;;6.57;;
9473;SDS011;8865;47.636;7.692;2022-11-15T10:20:23;7.00;;;6.30;;
9473;SDS011;8865;47.636;7.692;2022-11-15T10:23:01;6.97;;;6.30;;
9473;SDS011;8865;47.636;7.692;2022-11-15T10:25:33;6.50;;;5.60;;
9473;SDS011;8865;47.636;7.692;2022-11-15T10:28:01;6.00;;;5.50;;
9473;SDS011;8865;47.636;7.692;2022-11-15T10:30:41;6.77;;;6.07;;
9473;SDS011;8865;47.636;7.692;2022-11-15T10:35:43;6.97;;;5.53;;
9473;SDS011;8865;47.636;7.692;2022-11-15T10:38:10;6.03;;;5.50;;
9473;SDS011;8865;47.636;7.692;2022-11-15T10:40:37;6.60;;;5.87;;
9473;SDS011;8865;47.636;7.692;2022-11-15T10:43:10;6.23;;;5.63;;
9473;SDS011;8865;47.636;7.692;2022-11-15T10:45:40;6.13;;;5.53;;
9473;SDS011;8865;47.636;7.692;2022-11-15T10:50:41;6.87;;;5.30;;
9473;SDS011;8865;47.636;7.692;2022-11-15T10:56:12;6.20;;;5.60;;
9473;SDS011;8865;47.636;7.692;2022-11-15T10:58:44;5.60;;;5.10;;
9473;SDS011;8865;47.636;7.692;2022-11-15T11:01:17;5.87;;;5.27;;
9473;SDS011;8865;47.636;7.692;2022-11-15T11:06:28;5.47;;;4.97;;
9473;SDS011;8865;47.636;7.692;2022-11-15T11:09:02;5.60;;;4.97;;
9473;SDS011;8865;47.636;7.692;2022-11-15T11:11:43;7.10;;;4.90;;
9473;SDS011;8865;47.636;7.692;2022-11-15T11:14:15;6.03;;;4.70;;
9473;SDS011;8865;47.636;7.692;2022-11-15T11:17:36;4.80;;;4.30;;
9473;SDS011;8865;47.636;7.692;2022-11-15T11:31:05;6.40;;;5.67;;
9473;SDS011;8865;47.636;7.692;2022-11-15T11:41:10;6.20;;;5.13;;
9473;SDS011;8865;47.636;7.692;2022-11-15T11:50:10;7.70;;;5.10;;
9473;SDS011;8865;47.636;7.692;2022-11-15T11:52:30;8.03;;;5.57;;
9473;SDS011;8865;47.636;7.692;2022-11-15T12:00:25;6.03;;;4.70;;
9473;SDS011;8865;47.636;7.692;2022-11-15T12:08:58;5.27;;;4.50;;
9473;SDS011;8865;47.636;7.692;2022-11-15T12:14:16;5.77;;;5.17;;
9473;SDS011;8865;47.636;7.692;2022-11-15T12:17:11;5.47;;;4.87;;
9473;SDS011;8865;47.636;7.692;2022-11-15T12:19:38;5.63;;;4.00;;
9473;SDS011;8865;47.636;7.692;2022-11-15T12:22:21;6.03;;;5.23;;
9473;SDS011;8865;47.636;7.692;2022-11-15T12:28:12;5.30;;;4.80;;
9473;SDS011;8865;47.636;7.692;2022-11-15T12:30:29;6.17;;;4.70;;
9473;SDS011;8865;47.636;7.692;2022-11-15T12:33:36;18.83;;;14.53;;
9473;SDS011;8865;47.636;7.692;2022-11-15T12:36:08;11.10;;;8.67;;
9473;SDS011;8865;47.636;7.692;2022-11-15T12:41:29;5.50;;;4.83;;
9473;SDS011;8865;47.636;7.692;2022-11-15T12:43:59;10.80;;;9.83;;
9473;SDS011;8865;47.636;7.692;2022-11-15T12:59:55;4.63;;;3.80;;
9473;SDS011;8865;47.636;7.692;2022-11-15T13:04:47;5.37;;;4.40;;
9473;SDS011;8865;47.636;7.692;2022-11-15T13:10:47;4.67;;;4.10;;
9473;SDS011;8865;47.636;7.692;2022-11-15T13:13:00;4.50;;;4.10;;
9473;SDS011;8865;47.636;7.692;2022-11-15T13:15:31;5.23;;;4.73;;
9473;SDS011;8865;47.636;7.692;2022-11-15T13:18:23;5.30;;;4.70;;
9473;SDS011;8865;47.636;7.692;2022-11-15T13:20:51;6.20;;;4.93;;
9473;SDS011;8865;47.636;7.692;2022-11-15T13:23:17;8.73;;;4.70;;
9473;SDS011;8865;47.636;7.692;2022-11-15T13:34:25;5.13;;;4.50;;
9473;SDS011;8865;47.636;7.692;2022-11-15T13:36:54;5.23;;;4.67;;
9473;SDS011;8865;47.636;7.692;2022-11-15T13:39:30;5.77;;;4.67;;
9473;SDS011;8865;47.636;7.692;2022-11-15T13:41:58;5.23;;;4.73;;
9473;SDS011;8865;47.636;7.692;2022-11-15T13:44:25;5.53;;;4.60;;
9473;SDS011;8865;47.636;7.692;2022-11-15T13:47:00;5.57;;;4.80;;
9473;SDS011;8865;47.636;7.692;2022-11-15T13:49:31;6.30;;;5.30;;
9473;SDS011;8865;47.636;7.692;2022-11-15T13:51:59;6.37;;;5.47;;
9473;SDS011;8865;47.636;7.692;2022-11-15T13:56:58;5.17;;;4.40;;
9473;SDS011;8865;47.636;7.692;2022-11-15T13:59:29;5.00;;;4.53;;
9473;SDS011;8865;47.636;7.692;2022-11-15T14:02:01;6.53;;;4.80;;
9473;SDS011;8865;47.636;7.692;2022-11-15T14:04:50;5.03;;;4.53;;
9473;SDS011;8865;47.636;7.692;2022-11-15T14:07:22;7.20;;;5.27;;
9473;SDS011;8865;47.636;7.692;2022-11-15T14:09:50;5.40;;;4.80;;
9473;SDS011;8865;47.636;7.692;2022-11-15T14:15:19;5.87;;;4.90;;
9473;SDS011;8865;47.636;7.692;2022-11-15T14:17:52;4.87;;;4.23;;
9473;SDS011;8865;47.636;7.692;2022-11-15T14:20:19;6.50;;;5.13;;
9473;SDS011;8865;47.636;7.692;2022-11-15T14:23:00;7.77;;;4.80;;
9473;SDS011;8865;47.636;7.692;2022-11-15T14:25:53;5.67;;;4.80;;
9473;SDS011;8865;47.636;7.692;2022-11-15T14:30:49;6.23;;;5.40;;
9473;SDS011;8865;47.636;7.692;2022-11-15T14:33:30;5.47;;;4.97;;
9473;SDS011;8865;47.636;7.692;2022-11-15T14:35:57;6.20;;;4.73;;
9473;SDS011;8865;47.636;7.692;2022-11-15T14:38:24;5.73;;;4.83;;
9473;SDS011;8865;47.636;7.692;2022-11-15T14:40:51;5.80;;;4.90;;
9473;SDS011;8865;47.636;7.692;2022-11-15T14:43:17;5.50;;;5.00;;
9473;SDS011;8865;47.636;7.692;2022-11-15T14:45:43;6.57;;;5.40;;
9473;SDS011;8865;47.636;7.692;2022-11-15T14:48:09;6.10;;;5.50;;
9473;SDS011;8865;47.636;7.692;2022-11-15T14:50:35;7.33;;;5.73;;
9473;SDS011;8865;47.636;7.692;2022-11-15T14:53:02;8.00;;;5.47;;
9473;SDS011;8865;47.636;7.692;2022-11-15T14:55:30;5.67;;;5.07;;
9473;SDS011;8865;47.636;7.692;2022-11-15T14:57:59;5.53;;;5.03;;
9473;SDS011;8865;47.636;7.692;2022-11-15T15:00:27;7.20;;;5.63;;
9473;SDS011;8865;47.636;7.692;2022-11-15T15:02:54;8.37;;;6.03;;
9473;SDS011;8865;47.636;7.692;2022-11-15T15:07:47;6.37;;;5.73;;
9473;SDS011;8865;47.636;7.692;2022-11-15T15:10:13;6.90;;;5.77;;
9473;SDS011;8865;47.636;7.692;2022-11-15T15:12:40;7.10;;;5.53;;
9473;SDS011;8865;47.636;7.692;2022-11-15T15:15:24;6.47;;;5.50;;
9473;SDS011;8865;47.636;7.692;2022-11-15T15:17:52;6.43;;;5.73;;
9473;SDS011;8865;47.636;7.692;2022-11-15T15:20:18;8.37;;;5.60;;
9473;SDS011;8865;47.636;7.692;2022-11-15T15:22:44;8.07;;;5.67;;
9473;SDS011;8865;47.636;7.692;2022-11-15T15:25:15;6.87;;;5.90;;
9473;SDS011;8865;47.636;7.692;2022-11-15T15:27:44;6.57;;;5.23;;
9473;SDS011;8865;47.636;7.692;2022-11-15T15:30:10;6.50;;;5.17;;
9473;SDS011;8865;47.636;7.692;2022-11-15T15:32:36;5.60;;;5.00;;
9473;SDS011;8865;47.636;7.692;2022-11-15T15:35:02;5.97;;;4.97;;
9473;SDS011;8865;47.636;7.692;2022-11-15T15:37:28;6.63;;;5.63;;
9473;SDS011;8865;47.636;7.692;2022-11-15T15:39:56;5.43;;;4.93;;
9473;SDS011;8865;47.636;7.692;2022-11-15T15:42:22;6.53;;;5.50;;
9473;SDS011;8865;47.636;7.692;2022-11-15T15:44:49;7.10;;;5.80;;
9473;SDS011;8865;47.636;7.692;2022-11-15T15:47:16;5.93;;;5.03;;
9473;SDS011;8865;47.636;7.692;2022-11-15T15:49:47;8.03;;;5.50;;
9473;SDS011;8865;47.636;7.692;2022-11-15T15:52:14;7.83;;;5.33;;
9473;SDS011;8865;47.636;7.692;2022-11-15T15:54:40;5.20;;;4.70;;
9473;SDS011;8865;47.636;7.692;2022-11-15T15:57:07;7.27;;;5.90;;
9473;SDS011;8865;47.636;7.692;2022-11-15T15:59:34;6.67;;;4.93;;
9473;SDS011;8865;47.636;7.692;2022-11-15T16:02:00;6.77;;;5.33;;
9473;SDS011;8865;47.636;7.692;2022-11-15T16:04:26;10.80;;;9.67;;
9473;SDS011;8865;47.636;7.692;2022-11-15T16:06:52;7.10;;;6.10;;
9473;SDS011;8865;47.636;7.692;2022-11-15T16:09:20;7.53;;;5.47;;
9473;SDS011;8865;47.636;7.692;2022-11-15T16:12:09;8.53;;;6.00;;
9473;SDS011;8865;47.636;7.692;2022-11-15T16:14:35;6.07;;;5.43;;
9473;SDS011;8865;47.636;7.692;2022-11-15T16:17:01;7.30;;;5.37;;
9473;SDS011;8865;47.636;7.692;2022-11-15T16:19:27;6.20;;;5.33;;
9473;SDS011;8865;47.636;7.692;2022-11-15T16:21:53;6.00;;;5.33;;
9473;SDS011;8865;47.636;7.692;2022-11-15T16:24:20;7.50;;;6.37;;
9473;SDS011;8865;47.636;7.692;2022-11-15T16:26:46;7.77;;;6.47;;
9473;SDS011;8865;47.636;7.692;2022-11-15T16:29:13;8.20;;;6.80;;
9473;SDS011;8865;47.636;7.692;2022-11-15T16:31:39;9.30;;;6.70;;
9473;SDS011;8865;47.636;7.692;2022-11-15T16:34:05;8.67;;;6.57;;
9473;SDS011;8865;47.636;7.692;2022-11-15T16:36:32;7.87;;;6.77;;
9473;SDS011;8865;47.636;7.692;2022-11-15T16:38:59;7.23;;;6.40;;
9473;SDS011;8865;47.636;7.692;2022-11-15T16:41:29;12.77;;;9.07;;
9473;SDS011;8865;47.636;7.692;2022-11-15T16:43:55;7.33;;;6.20;;
9473;SDS011;8865;47.636;7.692;2022-11-15T16:46:22;7.03;;;6.33;;
9473;SDS011;8865;47.636;7.692;2022-11-15T16:48:50;7.63;;;6.40;;
9473;SDS011;8865;47.636;7.692;2022-11-15T16:51:18;7.00;;;5.87;;
9473;SDS011;8865;47.636;7.692;2022-11-15T16:53:44;8.43;;;6.50;;
9473;SDS011;8865;47.636;7.692;2022-11-15T16:58:51;10.10;;;7.30;;
9473;SDS011;8865;47.636;7.692;2022-11-15T17:01:23;8.30;;;7.10;;
9473;SDS011;8865;47.636;7.692;2022-11-15T17:03:51;8.53;;;6.53;;
9473;SDS011;8865;47.636;7.692;2022-11-15T17:06:18;7.73;;;6.63;;
9473;SDS011;8865;47.636;7.692;2022-11-15T17:08:44;7.90;;;6.57;;
9473;SDS011;8865;47.636;7.692;2022-11-15T17:11:15;8.87;;;7.97;;
9473;SDS011;8865;47.636;7.692;2022-11-15T17:13:44;12.43;;;9.47;;
9473;SDS011;8865;47.636;7.692;2022-11-15T17:16:12;18.37;;;10.80;;
9473;SDS011;8865;47.636;7.692;2022-11-15T17:18:39;8.17;;;7.37;;
9473;SDS011;8865;47.636;7.692;2022-11-15T17:21:10;7.93;;;7.03;;
9473;SDS011;8865;47.636;7.692;2022-11-15T17:23:42;8.40;;;6.40;;
9473;SDS011;8865;47.636;7.692;2022-11-15T17:26:08;9.53;;;7.87;;
9473;SDS011;8865;47.636;7.692;2022-11-15T17:28:36;8.43;;;7.60;;
9473;SDS011;8865;47.636;7.692;2022-11-15T17:31:07;7.97;;;7.10;;
9473;SDS011;8865;47.636;7.692;2022-11-15T17:33:35;8.87;;;7.97;;
9473;SDS011;8865;47.636;7.692;2022-11-15T17:36:03;10.20;;;8.07;;
9473;SDS011;8865;47.636;7.692;2022-11-15T17:38:30;10.13;;;7.67;;
9473;SDS011;8865;47.636;7.692;2022-11-15T17:43:31;9.77;;;7.20;;
9473;SDS011;8865;47.636;7.692;2022-11-15T17:46:01;8.33;;;7.30;;
9473;SDS011;8865;47.636;7.692;2022-11-15T17:48:30;9.60;;;7.00;;
9473;SDS011;8865;47.636;7.692;2022-11-15T17:50:56;8.90;;;6.90;;
9473;SDS011;8865;47.636;7.692;2022-11-15T17:53:24;8.30;;;7.50;;
9473;SDS011;8865;47.636;7.692;2022-11-15T17:55:51;8.07;;;7.27;;
9473;SDS011;8865;47.636;7.692;2022-11-15T17:58:17;8.57;;;7.77;;
9473;SDS011;8865;47.636;7.692;2022-11-15T18:00:46;11.20;;;10.07;;
9473;SDS011;8865;47.636;7.692;2022-11-15T18:03:13;9.13;;;8.17;;
9473;SDS011;8865;47.636;7.692;2022-11-15T18:05:39;10.60;;;8.17;;
9473;SDS011;8865;47.636;7.692;2022-11-15T18:08:09;9.93;;;8.07;;